sensor_id;sensor_type;location;lat;lon;timestamp;P1;durP1;ratioP1;P2;durP2;ratioP2
20084;SDS011;10202;48.474;9.138;2023-09-18T00:00:53;4.72;;;2.28;;
20084;SDS011;10202;48.474;9.138;2023-09-18T00:03:21;4.50;;;2.55;;
20084;SDS011;10202;48.474;9.138;2023-09-18T00:05:52;3.70;;;2.40;;
20084;SDS011;10202;48.474;9.138;2023-09-18T00:08:18;5.03;;;2.67;;
20084;SDS011;10202;48.474;9.138;2023-09-18T00:10:53;2.83;;;2.22;;
20084;SDS011;10202;48.474;9.138;2023-09-18T00:13:21;4.40;;;2.60;;
20084;SDS011;10202;48.474;9.138;2023-09-18T00:15:47;3.05;;;2.30;;
20084;SDS011;10202;48.474;9.138;2023-09-18T00:18:14;6.95;;;2.63;;
20084;SDS011;10202;48.474;9.138;2023-09-18T00:20:40;4.07;;;2.20;;
20084;SDS011;10202;48.474;9.138;2023-09-18T00:23:06;5.00;;;2.60;;
20084;SDS011;10202;48.474;9.138;2023-09-18T00:25:33;2.67;;;2.17;;
20084;SDS011;10202;48.474;9.138;2023-09-18T00:27:58;3.92;;;2.30;;
20084;SDS011;10202;48.474;9.138;2023-09-18T00:30:24;5.97;;;2.40;;
20084;SDS011;10202;48.474;9.138;2023-09-18T00:32:51;4.22;;;2.60;;
20084;SDS011;10202;48.474;9.138;2023-09-18T00:35:17;5.10;;;2.25;;
20084;SDS011;10202;48.474;9.138;2023-09-18T00:37:45;4.65;;;2.30;;
20084;SDS011;10202;48.474;9.138;2023-09-18T00:40:12;4.38;;;2.47;;
20084;SDS011;10202;48.474;9.138;2023-09-18T00:42:40;4.03;;;2.45;;
20084;SDS011;10202;48.474;9.138;2023-09-18T00:45:08;2.63;;;2.22;;
20084;SDS011;10202;48.474;9.138;2023-09-18T00:47:35;4.32;;;2.65;;
20084;SDS011;10202;48.474;9.138;2023-09-18T00:50:04;5.93;;;2.50;;
20084;SDS011;10202;48.474;9.138;2023-09-18T00:52:31;7.22;;;2.35;;
20084;SDS011;10202;48.474;9.138;2023-09-18T00:55:00;3.83;;;2.30;;
20084;SDS011;10202;48.474;9.138;2023-09-18T00:57:28;5.50;;;2.17;;
20084;SDS011;10202;48.474;9.138;2023-09-18T00:59:53;3.03;;;2.10;;
20084;SDS011;10202;48.474;9.138;2023-09-18T01:02:19;6.85;;;2.40;;
20084;SDS011;10202;48.474;9.138;2023-09-18T01:04:48;4.32;;;2.40;;
20084;SDS011;10202;48.474;9.138;2023-09-18T01:07:14;5.50;;;2.50;;
20084;SDS011;10202;48.474;9.138;2023-09-18T01:09:47;4.43;;;2.33;;
20084;SDS011;10202;48.474;9.138;2023-09-18T01:12:21;5.88;;;2.33;;
20084;SDS011;10202;48.474;9.138;2023-09-18T01:17:24;5.57;;;2.08;;
20084;SDS011;10202;48.474;9.138;2023-09-18T01:19:51;2.90;;;2.22;;
20084;SDS011;10202;48.474;9.138;2023-09-18T01:22:19;3.25;;;2.00;;
20084;SDS011;10202;48.474;9.138;2023-09-18T01:24:48;6.00;;;2.72;;
20084;SDS011;10202;48.474;9.138;2023-09-18T01:27:14;4.90;;;2.10;;
20084;SDS011;10202;48.474;9.138;2023-09-18T01:29:42;3.80;;;2.28;;
20084;SDS011;10202;48.474;9.138;2023-09-18T01:32:08;3.08;;;2.00;;
20084;SDS011;10202;48.474;9.138;2023-09-18T01:34:56;4.85;;;2.38;;
20084;SDS011;10202;48.474;9.138;2023-09-18T01:37:23;5.15;;;2.20;;
20084;SDS011;10202;48.474;9.138;2023-09-18T01:39:51;3.20;;;2.28;;
20084;SDS011;10202;48.474;9.138;2023-09-18T01:42:17;4.50;;;2.42;;
20084;SDS011;10202;48.474;9.138;2023-09-18T01:44:43;4.05;;;2.90;;
20084;SDS011;10202;48.474;9.138;2023-09-18T01:47:12;5.88;;;2.80;;
20084;SDS011;10202;48.474;9.138;2023-09-18T01:49:40;6.63;;;2.85;;
20084;SDS011;10202;48.474;9.138;2023-09-18T01:52:06;4.10;;;2.42;;
20084;SDS011;10202;48.474;9.138;2023-09-18T01:54:33;9.95;;;2.60;;
20084;SDS011;10202;48.474;9.138;2023-09-18T01:56:59;6.07;;;2.42;;
20084;SDS011;10202;48.474;9.138;2023-09-18T01:59:27;6.60;;;2.83;;
20084;SDS011;10202;48.474;9.138;2023-09-18T02:01:53;3.55;;;2.40;;
20084;SDS011;10202;48.474;9.138;2023-09-18T02:04:19;3.90;;;2.10;;
20084;SDS011;10202;48.474;9.138;2023-09-18T02:06:45;5.35;;;2.08;;
20084;SDS011;10202;48.474;9.138;2023-09-18T02:09:12;5.35;;;2.40;;
20084;SDS011;10202;48.474;9.138;2023-09-18T02:11:41;5.25;;;2.92;;
20084;SDS011;10202;48.474;9.138;2023-09-18T02:14:07;8.43;;;2.85;;
20084;SDS011;10202;48.474;9.138;2023-09-18T02:16:35;3.35;;;2.28;;
20084;SDS011;10202;48.474;9.138;2023-09-18T02:19:02;3.20;;;2.20;;
20084;SDS011;10202;48.474;9.138;2023-09-18T02:21:30;4.45;;;2.72;;
20084;SDS011;10202;48.474;9.138;2023-09-18T02:23:56;2.38;;;2.03;;
20084;SDS011;10202;48.474;9.138;2023-09-18T02:26:22;6.93;;;2.45;;
20084;SDS011;10202;48.474;9.138;2023-09-18T02:28:48;3.38;;;2.22;;
20084;SDS011;10202;48.474;9.138;2023-09-18T02:31:16;4.75;;;2.28;;
20084;SDS011;10202;48.474;9.138;2023-09-18T02:33:44;4.03;;;2.33;;
20084;SDS011;10202;48.474;9.138;2023-09-18T02:36:10;4.70;;;2.20;;
20084;SDS011;10202;48.474;9.138;2023-09-18T02:38:36;2.33;;;2.00;;
20084;SDS011;10202;48.474;9.138;2023-09-18T02:41:01;4.18;;;2.20;;
20084;SDS011;10202;48.474;9.138;2023-09-18T02:43:27;5.55;;;2.28;;
20084;SDS011;10202;48.474;9.138;2023-09-18T02:45:52;3.55;;;2.33;;
20084;SDS011;10202;48.474;9.138;2023-09-18T02:48:23;2.88;;;2.17;;
20084;SDS011;10202;48.474;9.138;2023-09-18T02:50:49;4.10;;;2.47;;
20084;SDS011;10202;48.474;9.138;2023-09-18T02:53:18;9.63;;;2.60;;
20084;SDS011;10202;48.474;9.138;2023-09-18T02:55:44;4.10;;;2.20;;
20084;SDS011;10202;48.474;9.138;2023-09-18T02:58:10;5.35;;;2.42;;
20084;SDS011;10202;48.474;9.138;2023-09-18T03:00:41;5.90;;;2.80;;
20084;SDS011;10202;48.474;9.138;2023-09-18T03:03:12;11.15;;;2.60;;
20084;SDS011;10202;48.474;9.138;2023-09-18T03:05:39;9.15;;;2.78;;
20084;SDS011;10202;48.474;9.138;2023-09-18T03:08:08;3.42;;;2.28;;
20084;SDS011;10202;48.474;9.138;2023-09-18T03:10:35;2.58;;;2.15;;
20084;SDS011;10202;48.474;9.138;2023-09-18T03:13:01;6.47;;;2.30;;
20084;SDS011;10202;48.474;9.138;2023-09-18T03:15:28;4.75;;;2.40;;
20084;SDS011;10202;48.474;9.138;2023-09-18T03:17:54;7.10;;;2.58;;
20084;SDS011;10202;48.474;9.138;2023-09-18T03:20:25;5.47;;;2.67;;
20084;SDS011;10202;48.474;9.138;2023-09-18T03:22:55;3.13;;;2.10;;
20084;SDS011;10202;48.474;9.138;2023-09-18T03:25:25;4.32;;;2.22;;
20084;SDS011;10202;48.474;9.138;2023-09-18T03:27:56;6.85;;;2.05;;
20084;SDS011;10202;48.474;9.138;2023-09-18T03:30:29;2.90;;;2.20;;
20084;SDS011;10202;48.474;9.138;2023-09-18T03:32:55;3.85;;;1.85;;
20084;SDS011;10202;48.474;9.138;2023-09-18T03:35:22;3.75;;;2.10;;
20084;SDS011;10202;48.474;9.138;2023-09-18T03:37:49;2.92;;;2.08;;
20084;SDS011;10202;48.474;9.138;2023-09-18T03:40:16;4.25;;;2.30;;
20084;SDS011;10202;48.474;9.138;2023-09-18T03:42:42;5.18;;;2.20;;
20084;SDS011;10202;48.474;9.138;2023-09-18T03:45:08;3.15;;;2.33;;
20084;SDS011;10202;48.474;9.138;2023-09-18T03:47:35;6.00;;;2.13;;
20084;SDS011;10202;48.474;9.138;2023-09-18T03:50:01;3.00;;;2.22;;
20084;SDS011;10202;48.474;9.138;2023-09-18T03:52:37;7.05;;;2.50;;
20084;SDS011;10202;48.474;9.138;2023-09-18T03:55:04;9.30;;;2.00;;
20084;SDS011;10202;48.474;9.138;2023-09-18T03:57:32;4.20;;;2.38;;
20084;SDS011;10202;48.474;9.138;2023-09-18T04:00:02;6.35;;;2.60;;
20084;SDS011;10202;48.474;9.138;2023-09-18T04:02:37;7.45;;;2.22;;
20084;SDS011;10202;48.474;9.138;2023-09-18T04:05:04;9.15;;;2.08;;
20084;SDS011;10202;48.474;9.138;2023-09-18T04:07:33;4.53;;;2.20;;
20084;SDS011;10202;48.474;9.138;2023-09-18T04:09:59;9.68;;;2.28;;
20084;SDS011;10202;48.474;9.138;2023-09-18T04:12:27;5.03;;;2.15;;
20084;SDS011;10202;48.474;9.138;2023-09-18T04:14:54;6.47;;;2.13;;
20084;SDS011;10202;48.474;9.138;2023-09-18T04:17:21;8.02;;;2.17;;
20084;SDS011;10202;48.474;9.138;2023-09-18T04:19:46;9.23;;;2.63;;
20084;SDS011;10202;48.474;9.138;2023-09-18T04:22:12;5.57;;;1.85;;
20084;SDS011;10202;48.474;9.138;2023-09-18T04:24:37;7.65;;;1.90;;
20084;SDS011;10202;48.474;9.138;2023-09-18T04:27:06;17.20;;;3.30;;
20084;SDS011;10202;48.474;9.138;2023-09-18T04:29:35;6.30;;;2.40;;
20084;SDS011;10202;48.474;9.138;2023-09-18T04:32:01;5.88;;;1.90;;
20084;SDS011;10202;48.474;9.138;2023-09-18T04:34:29;7.88;;;2.03;;
20084;SDS011;10202;48.474;9.138;2023-09-18T04:36:56;6.57;;;1.98;;
20084;SDS011;10202;48.474;9.138;2023-09-18T04:39:27;10.13;;;1.90;;
20084;SDS011;10202;48.474;9.138;2023-09-18T04:41:55;10.80;;;2.78;;
20084;SDS011;10202;48.474;9.138;2023-09-18T04:44:20;15.57;;;2.38;;
20084;SDS011;10202;48.474;9.138;2023-09-18T04:46:46;6.93;;;2.20;;
20084;SDS011;10202;48.474;9.138;2023-09-18T04:49:11;9.82;;;2.13;;
20084;SDS011;10202;48.474;9.138;2023-09-18T04:51:37;10.70;;;2.03;;
20084;SDS011;10202;48.474;9.138;2023-09-18T04:54:04;7.15;;;2.50;;
20084;SDS011;10202;48.474;9.138;2023-09-18T04:56:30;9.98;;;2.38;;
20084;SDS011;10202;48.474;9.138;2023-09-18T04:58:58;10.38;;;2.40;;
20084;SDS011;10202;48.474;9.138;2023-09-18T05:01:27;9.18;;;2.15;;
20084;SDS011;10202;48.474;9.138;2023-09-18T05:03:53;9.00;;;2.33;;
20084;SDS011;10202;48.474;9.138;2023-09-18T05:06:18;12.32;;;2.22;;
20084;SDS011;10202;48.474;9.138;2023-09-18T05:08:46;10.88;;;2.03;;
20084;SDS011;10202;48.474;9.138;2023-09-18T05:11:11;8.35;;;2.60;;
20084;SDS011;10202;48.474;9.138;2023-09-18T05:13:37;11.43;;;2.17;;
20084;SDS011;10202;48.474;9.138;2023-09-18T05:16:02;9.85;;;2.20;;
20084;SDS011;10202;48.474;9.138;2023-09-18T05:18:28;7.68;;;2.17;;
20084;SDS011;10202;48.474;9.138;2023-09-18T05:20:56;5.15;;;2.03;;
20084;SDS011;10202;48.474;9.138;2023-09-18T05:23:23;8.40;;;1.90;;
20084;SDS011;10202;48.474;9.138;2023-09-18T05:25:48;8.75;;;2.13;;
20084;SDS011;10202;48.474;9.138;2023-09-18T05:28:13;10.20;;;2.40;;
20084;SDS011;10202;48.474;9.138;2023-09-18T05:30:39;7.00;;;1.90;;
20084;SDS011;10202;48.474;9.138;2023-09-18T05:33:05;4.53;;;1.85;;
20084;SDS011;10202;48.474;9.138;2023-09-18T05:35:31;4.60;;;1.90;;
20084;SDS011;10202;48.474;9.138;2023-09-18T05:37:57;8.77;;;1.88;;
20084;SDS011;10202;48.474;9.138;2023-09-18T05:40:23;5.93;;;1.98;;
20084;SDS011;10202;48.474;9.138;2023-09-18T05:42:52;8.13;;;1.85;;
20084;SDS011;10202;48.474;9.138;2023-09-18T05:45:18;13.57;;;2.25;;
20084;SDS011;10202;48.474;9.138;2023-09-18T05:47:44;8.10;;;2.05;;
20084;SDS011;10202;48.474;9.138;2023-09-18T05:50:12;8.25;;;1.88;;
20084;SDS011;10202;48.474;9.138;2023-09-18T05:52:40;5.88;;;1.85;;
20084;SDS011;10202;48.474;9.138;2023-09-18T05:55:08;8.23;;;2.25;;
20084;SDS011;10202;48.474;9.138;2023-09-18T05:57:37;10.18;;;2.28;;
20084;SDS011;10202;48.474;9.138;2023-09-18T06:00:03;11.23;;;2.35;;
20084;SDS011;10202;48.474;9.138;2023-09-18T06:02:37;8.60;;;2.70;;
20084;SDS011;10202;48.474;9.138;2023-09-18T06:05:02;7.93;;;1.95;;
20084;SDS011;10202;48.474;9.138;2023-09-18T06:07:32;6.25;;;2.00;;
20084;SDS011;10202;48.474;9.138;2023-09-18T06:10:00;12.05;;;2.03;;
20084;SDS011;10202;48.474;9.138;2023-09-18T06:12:29;11.00;;;3.03;;
20084;SDS011;10202;48.474;9.138;2023-09-18T06:14:55;7.18;;;2.20;;
20084;SDS011;10202;48.474;9.138;2023-09-18T06:17:20;8.77;;;2.75;;
20084;SDS011;10202;48.474;9.138;2023-09-18T06:19:46;7.80;;;2.10;;
20084;SDS011;10202;48.474;9.138;2023-09-18T06:22:12;7.18;;;2.00;;
20084;SDS011;10202;48.474;9.138;2023-09-18T06:24:38;6.35;;;2.08;;
20084;SDS011;10202;48.474;9.138;2023-09-18T06:27:05;7.70;;;2.30;;
20084;SDS011;10202;48.474;9.138;2023-09-18T06:29:34;7.78;;;2.30;;
20084;SDS011;10202;48.474;9.138;2023-09-18T06:32:00;7.88;;;2.10;;
20084;SDS011;10202;48.474;9.138;2023-09-18T06:34:25;14.43;;;2.40;;
20084;SDS011;10202;48.474;9.138;2023-09-18T06:36:53;6.40;;;1.90;;
20084;SDS011;10202;48.474;9.138;2023-09-18T06:39:23;6.30;;;2.20;;
20084;SDS011;10202;48.474;9.138;2023-09-18T06:41:49;5.65;;;2.00;;
20084;SDS011;10202;48.474;9.138;2023-09-18T06:44:18;6.25;;;2.05;;
20084;SDS011;10202;48.474;9.138;2023-09-18T06:46:44;12.93;;;2.05;;
20084;SDS011;10202;48.474;9.138;2023-09-18T06:49:14;10.60;;;2.05;;
20084;SDS011;10202;48.474;9.138;2023-09-18T06:51:39;6.07;;;2.38;;
20084;SDS011;10202;48.474;9.138;2023-09-18T06:54:05;8.55;;;1.75;;
20084;SDS011;10202;48.474;9.138;2023-09-18T06:56:32;6.90;;;2.13;;
20084;SDS011;10202;48.474;9.138;2023-09-18T06:58:58;10.20;;;2.22;;
20084;SDS011;10202;48.474;9.138;2023-09-18T07:01:26;9.10;;;1.88;;
20084;SDS011;10202;48.474;9.138;2023-09-18T07:03:53;7.55;;;1.63;;
20084;SDS011;10202;48.474;9.138;2023-09-18T07:06:23;6.13;;;2.08;;
20084;SDS011;10202;48.474;9.138;2023-09-18T07:08:49;8.85;;;2.08;;
20084;SDS011;10202;48.474;9.138;2023-09-18T07:11:17;7.85;;;1.65;;
20084;SDS011;10202;48.474;9.138;2023-09-18T07:13:42;8.80;;;2.25;;
20084;SDS011;10202;48.474;9.138;2023-09-18T07:16:08;15.70;;;2.30;;
20084;SDS011;10202;48.474;9.138;2023-09-18T07:18:34;6.13;;;2.15;;
20084;SDS011;10202;48.474;9.138;2023-09-18T07:20:59;6.82;;;1.80;;
20084;SDS011;10202;48.474;9.138;2023-09-18T07:23:30;6.55;;;1.70;;
20084;SDS011;10202;48.474;9.138;2023-09-18T07:26:02;6.63;;;1.60;;
20084;SDS011;10202;48.474;9.138;2023-09-18T07:28:28;8.95;;;2.03;;
20084;SDS011;10202;48.474;9.138;2023-09-18T07:30:56;6.47;;;1.90;;
20084;SDS011;10202;48.474;9.138;2023-09-18T07:33:21;6.47;;;1.55;;
20084;SDS011;10202;48.474;9.138;2023-09-18T07:35:49;9.70;;;1.55;;
20084;SDS011;10202;48.474;9.138;2023-09-18T07:38:17;6.68;;;2.00;;
20084;SDS011;10202;48.474;9.138;2023-09-18T07:40:44;10.13;;;2.20;;
20084;SDS011;10202;48.474;9.138;2023-09-18T07:43:10;11.88;;;1.80;;
20084;SDS011;10202;48.474;9.138;2023-09-18T07:45:38;9.32;;;1.98;;
20084;SDS011;10202;48.474;9.138;2023-09-18T07:48:09;7.28;;;1.95;;
20084;SDS011;10202;48.474;9.138;2023-09-18T07:50:34;6.70;;;1.75;;
20084;SDS011;10202;48.474;9.138;2023-09-18T07:53:00;4.32;;;1.60;;
20084;SDS011;10202;48.474;9.138;2023-09-18T07:55:26;4.70;;;1.45;;
20084;SDS011;10202;48.474;9.138;2023-09-18T07:57:52;6.40;;;1.50;;
20084;SDS011;10202;48.474;9.138;2023-09-18T08:00:17;4.95;;;1.30;;
20084;SDS011;10202;48.474;9.138;2023-09-18T08:02:47;4.03;;;1.10;;
20084;SDS011;10202;48.474;9.138;2023-09-18T08:05:19;7.43;;;1.10;;
20084;SDS011;10202;48.474;9.138;2023-09-18T08:07:44;5.70;;;1.30;;
20084;SDS011;10202;48.474;9.138;2023-09-18T08:10:14;3.22;;;1.08;;
20084;SDS011;10202;48.474;9.138;2023-09-18T08:12:40;4.72;;;1.30;;
20084;SDS011;10202;48.474;9.138;2023-09-18T08:15:05;6.80;;;1.63;;
20084;SDS011;10202;48.474;9.138;2023-09-18T08:17:31;2.17;;;1.23;;
20084;SDS011;10202;48.474;9.138;2023-09-18T08:19:57;6.43;;;1.20;;
20084;SDS011;10202;48.474;9.138;2023-09-18T08:22:23;3.45;;;1.30;;
20084;SDS011;10202;48.474;9.138;2023-09-18T08:24:51;5.90;;;1.30;;
20084;SDS011;10202;48.474;9.138;2023-09-18T08:27:18;8.05;;;1.40;;
20084;SDS011;10202;48.474;9.138;2023-09-18T08:29:44;4.32;;;1.00;;
20084;SDS011;10202;48.474;9.138;2023-09-18T08:32:10;5.50;;;1.20;;
20084;SDS011;10202;48.474;9.138;2023-09-18T08:34:38;2.83;;;1.13;;
20084;SDS011;10202;48.474;9.138;2023-09-18T08:37:06;3.85;;;1.08;;
20084;SDS011;10202;48.474;9.138;2023-09-18T08:39:31;3.88;;;1.23;;
20084;SDS011;10202;48.474;9.138;2023-09-18T08:42:02;4.43;;;1.23;;
20084;SDS011;10202;48.474;9.138;2023-09-18T08:44:31;4.45;;;0.90;;
20084;SDS011;10202;48.474;9.138;2023-09-18T08:46:58;2.47;;;0.88;;
20084;SDS011;10202;48.474;9.138;2023-09-18T08:49:24;2.35;;;0.68;;
20084;SDS011;10202;48.474;9.138;2023-09-18T08:51:50;5.60;;;0.82;;
20084;SDS011;10202;48.474;9.138;2023-09-18T08:54:19;1.95;;;0.70;;
20084;SDS011;10202;48.474;9.138;2023-09-18T08:56:44;2.55;;;0.77;;
20084;SDS011;10202;48.474;9.138;2023-09-18T08:59:10;1.55;;;0.63;;
20084;SDS011;10202;48.474;9.138;2023-09-18T09:01:39;1.60;;;0.52;;
20084;SDS011;10202;48.474;9.138;2023-09-18T09:04:05;3.95;;;0.82;;
20084;SDS011;10202;48.474;9.138;2023-09-18T09:06:30;3.03;;;0.80;;
20084;SDS011;10202;48.474;9.138;2023-09-18T09:09:01;4.18;;;0.70;;
20084;SDS011;10202;48.474;9.138;2023-09-18T09:11:30;3.38;;;0.55;;
20084;SDS011;10202;48.474;9.138;2023-09-18T09:14:11;1.77;;;0.60;;
20084;SDS011;10202;48.474;9.138;2023-09-18T09:16:48;3.95;;;0.80;;
20084;SDS011;10202;48.474;9.138;2023-09-18T09:19:18;1.67;;;0.80;;
20084;SDS011;10202;48.474;9.138;2023-09-18T09:21:46;1.40;;;0.70;;
20084;SDS011;10202;48.474;9.138;2023-09-18T09:24:11;0.98;;;0.60;;
20084;SDS011;10202;48.474;9.138;2023-09-18T09:26:42;2.17;;;0.68;;
20084;SDS011;10202;48.474;9.138;2023-09-18T09:29:26;3.42;;;0.50;;
20084;SDS011;10202;48.474;9.138;2023-09-18T09:31:51;1.50;;;0.70;;
20084;SDS011;10202;48.474;9.138;2023-09-18T09:34:26;0.85;;;0.50;;
20084;SDS011;10202;48.474;9.138;2023-09-18T09:36:53;1.15;;;0.47;;
20084;SDS011;10202;48.474;9.138;2023-09-18T09:39:22;1.77;;;0.57;;
20084;SDS011;10202;48.474;9.138;2023-09-18T09:41:53;1.13;;;0.60;;
20084;SDS011;10202;48.474;9.138;2023-09-18T09:44:18;0.98;;;0.43;;
20084;SDS011;10202;48.474;9.138;2023-09-18T09:46:47;0.82;;;0.50;;
20084;SDS011;10202;48.474;9.138;2023-09-18T09:49:15;0.90;;;0.65;;
20084;SDS011;10202;48.474;9.138;2023-09-18T09:51:41;0.55;;;0.50;;
20084;SDS011;10202;48.474;9.138;2023-09-18T09:54:06;1.75;;;0.52;;
20084;SDS011;10202;48.474;9.138;2023-09-18T09:56:46;1.05;;;0.30;;
20084;SDS011;10202;48.474;9.138;2023-09-18T09:59:15;1.30;;;0.60;;
20084;SDS011;10202;48.474;9.138;2023-09-18T10:01:41;1.63;;;0.60;;
20084;SDS011;10202;48.474;9.138;2023-09-18T10:04:09;3.25;;;0.90;;
20084;SDS011;10202;48.474;9.138;2023-09-18T10:06:38;0.90;;;0.43;;
20084;SDS011;10202;48.474;9.138;2023-09-18T10:09:09;1.73;;;0.70;;
20084;SDS011;10202;48.474;9.138;2023-09-18T10:11:37;6.22;;;0.50;;
20084;SDS011;10202;48.474;9.138;2023-09-18T10:14:16;2.70;;;0.47;;
20084;SDS011;10202;48.474;9.138;2023-09-18T10:16:45;1.33;;;0.68;;
20084;SDS011;10202;48.474;9.138;2023-09-18T10:22:41;3.42;;;0.40;;
20084;SDS011;10202;48.474;9.138;2023-09-18T10:25:14;0.65;;;0.50;;
20084;SDS011;10202;48.474;9.138;2023-09-18T10:27:48;1.20;;;0.50;;
20084;SDS011;10202;48.474;9.138;2023-09-18T10:30:18;1.80;;;0.60;;
20084;SDS011;10202;48.474;9.138;2023-09-18T10:32:48;1.10;;;0.68;;
20084;SDS011;10202;48.474;9.138;2023-09-18T10:35:17;1.42;;;0.55;;
20084;SDS011;10202;48.474;9.138;2023-09-18T10:37:45;0.70;;;0.70;;
20084;SDS011;10202;48.474;9.138;2023-09-18T10:40:11;1.00;;;0.60;;
20084;SDS011;10202;48.474;9.138;2023-09-18T10:42:40;0.60;;;0.50;;
20084;SDS011;10202;48.474;9.138;2023-09-18T10:45:10;3.13;;;0.88;;
20084;SDS011;10202;48.474;9.138;2023-09-18T10:47:39;1.70;;;0.60;;
20084;SDS011;10202;48.474;9.138;2023-09-18T10:50:06;1.30;;;0.60;;
20084;SDS011;10202;48.474;9.138;2023-09-18T10:52:43;1.63;;;0.60;;
20084;SDS011;10202;48.474;9.138;2023-09-18T10:55:13;1.73;;;0.65;;
20084;SDS011;10202;48.474;9.138;2023-09-18T10:57:55;2.00;;;0.70;;
20084;SDS011;10202;48.474;9.138;2023-09-18T11:00:24;3.45;;;0.80;;
20084;SDS011;10202;48.474;9.138;2023-09-18T11:02:54;3.15;;;0.93;;
20084;SDS011;10202;48.474;9.138;2023-09-18T11:05:34;1.58;;;0.80;;
20084;SDS011;10202;48.474;9.138;2023-09-18T11:10:54;1.58;;;0.75;;
20084;SDS011;10202;48.474;9.138;2023-09-18T11:13:28;0.50;;;0.50;;
20084;SDS011;10202;48.474;9.138;2023-09-18T11:15:58;1.00;;;0.70;;
20084;SDS011;10202;48.474;9.138;2023-09-18T11:18:32;1.15;;;0.70;;
20084;SDS011;10202;48.474;9.138;2023-09-18T11:21:10;4.90;;;0.60;;
20084;SDS011;10202;48.474;9.138;2023-09-18T11:23:37;0.80;;;0.73;;
20084;SDS011;10202;48.474;9.138;2023-09-18T11:26:11;1.40;;;0.80;;
20084;SDS011;10202;48.474;9.138;2023-09-18T11:28:37;3.63;;;0.73;;
20084;SDS011;10202;48.474;9.138;2023-09-18T11:31:02;4.43;;;0.80;;
20084;SDS011;10202;48.474;9.138;2023-09-18T11:33:38;2.42;;;0.60;;
20084;SDS011;10202;48.474;9.138;2023-09-18T11:38:55;1.80;;;0.80;;
20084;SDS011;10202;48.474;9.138;2023-09-18T11:41:24;1.20;;;0.80;;
20084;SDS011;10202;48.474;9.138;2023-09-18T11:46:47;1.30;;;0.70;;
20084;SDS011;10202;48.474;9.138;2023-09-18T11:49:23;2.80;;;0.70;;
20084;SDS011;10202;48.474;9.138;2023-09-18T11:51:53;1.15;;;0.80;;
20084;SDS011;10202;48.474;9.138;2023-09-18T11:54:19;2.63;;;0.80;;
20084;SDS011;10202;48.474;9.138;2023-09-18T11:56:46;2.00;;;0.90;;
20084;SDS011;10202;48.474;9.138;2023-09-18T11:59:12;1.55;;;0.77;;
20084;SDS011;10202;48.474;9.138;2023-09-18T12:01:38;2.28;;;0.60;;
20084;SDS011;10202;48.474;9.138;2023-09-18T12:04:11;3.00;;;0.68;;
20084;SDS011;10202;48.474;9.138;2023-09-18T12:06:38;1.95;;;0.60;;
20084;SDS011;10202;48.474;9.138;2023-09-18T12:09:05;2.83;;;0.80;;
20084;SDS011;10202;48.474;9.138;2023-09-18T12:11:32;2.92;;;0.60;;
20084;SDS011;10202;48.474;9.138;2023-09-18T12:13:59;2.80;;;0.85;;
20084;SDS011;10202;48.474;9.138;2023-09-18T12:16:25;2.75;;;0.88;;
20084;SDS011;10202;48.474;9.138;2023-09-18T12:18:50;2.20;;;0.70;;
20084;SDS011;10202;48.474;9.138;2023-09-18T12:21:16;1.25;;;0.80;;
20084;SDS011;10202;48.474;9.138;2023-09-18T12:23:43;2.90;;;0.80;;
20084;SDS011;10202;48.474;9.138;2023-09-18T12:26:15;0.85;;;0.68;;
20084;SDS011;10202;48.474;9.138;2023-09-18T12:28:45;2.40;;;0.63;;
20084;SDS011;10202;48.474;9.138;2023-09-18T12:31:13;3.88;;;0.80;;
20084;SDS011;10202;48.474;9.138;2023-09-18T12:33:42;0.50;;;0.50;;
20084;SDS011;10202;48.474;9.138;2023-09-18T12:36:09;2.00;;;0.75;;
20084;SDS011;10202;48.474;9.138;2023-09-18T12:38:37;1.10;;;0.80;;
20084;SDS011;10202;48.474;9.138;2023-09-18T12:41:03;4.03;;;1.00;;
20084;SDS011;10202;48.474;9.138;2023-09-18T12:43:36;2.08;;;0.98;;
20084;SDS011;10202;48.474;9.138;2023-09-18T12:46:05;2.05;;;0.80;;
20084;SDS011;10202;48.474;9.138;2023-09-18T12:48:31;5.05;;;0.82;;
20084;SDS011;10202;48.474;9.138;2023-09-18T12:51:02;3.55;;;1.00;;
20084;SDS011;10202;48.474;9.138;2023-09-18T12:53:29;3.88;;;0.73;;
20084;SDS011;10202;48.474;9.138;2023-09-18T12:55:54;1.88;;;0.82;;
20084;SDS011;10202;48.474;9.138;2023-09-18T12:58:20;2.17;;;0.90;;
20084;SDS011;10202;48.474;9.138;2023-09-18T13:00:48;1.70;;;0.70;;
20084;SDS011;10202;48.474;9.138;2023-09-18T13:03:17;1.85;;;0.90;;
20084;SDS011;10202;48.474;9.138;2023-09-18T13:05:43;1.65;;;0.90;;
20084;SDS011;10202;48.474;9.138;2023-09-18T13:08:09;3.70;;;1.10;;
20084;SDS011;10202;48.474;9.138;2023-09-18T13:10:47;5.15;;;0.90;;
20084;SDS011;10202;48.474;9.138;2023-09-18T13:13:21;1.60;;;0.90;;
20084;SDS011;10202;48.474;9.138;2023-09-18T13:15:47;1.55;;;0.70;;
20084;SDS011;10202;48.474;9.138;2023-09-18T13:18:13;3.08;;;0.90;;
20084;SDS011;10202;48.474;9.138;2023-09-18T13:20:43;2.00;;;0.98;;
20084;SDS011;10202;48.474;9.138;2023-09-18T13:23:09;0.90;;;0.80;;
20084;SDS011;10202;48.474;9.138;2023-09-18T13:25:35;3.88;;;1.33;;
20084;SDS011;10202;48.474;9.138;2023-09-18T13:28:05;2.85;;;1.02;;
20084;SDS011;10202;48.474;9.138;2023-09-18T13:30:32;2.00;;;0.70;;
20084;SDS011;10202;48.474;9.138;2023-09-18T13:33:04;1.65;;;0.90;;
20084;SDS011;10202;48.474;9.138;2023-09-18T13:35:37;2.28;;;0.88;;
20084;SDS011;10202;48.474;9.138;2023-09-18T13:38:05;2.10;;;0.75;;
20084;SDS011;10202;48.474;9.138;2023-09-18T13:40:31;4.30;;;1.08;;
20084;SDS011;10202;48.474;9.138;2023-09-18T13:42:58;1.90;;;1.00;;
20084;SDS011;10202;48.474;9.138;2023-09-18T13:45:29;0.85;;;0.55;;
20084;SDS011;10202;48.474;9.138;2023-09-18T13:47:55;4.25;;;0.80;;
20084;SDS011;10202;48.474;9.138;2023-09-18T13:50:20;1.65;;;0.82;;
20084;SDS011;10202;48.474;9.138;2023-09-18T13:52:49;4.68;;;0.70;;
20084;SDS011;10202;48.474;9.138;2023-09-18T13:55:16;1.90;;;0.70;;
20084;SDS011;10202;48.474;9.138;2023-09-18T13:57:42;1.48;;;0.85;;
20084;SDS011;10202;48.474;9.138;2023-09-18T14:00:08;1.70;;;0.73;;
20084;SDS011;10202;48.474;9.138;2023-09-18T14:02:38;2.40;;;0.80;;
20084;SDS011;10202;48.474;9.138;2023-09-18T14:05:04;1.17;;;0.68;;
20084;SDS011;10202;48.474;9.138;2023-09-18T14:07:33;2.45;;;0.82;;
20084;SDS011;10202;48.474;9.138;2023-09-18T14:09:59;2.15;;;0.70;;
20084;SDS011;10202;48.474;9.138;2023-09-18T14:12:29;0.98;;;0.70;;
20084;SDS011;10202;48.474;9.138;2023-09-18T14:14:55;1.58;;;0.93;;
20084;SDS011;10202;48.474;9.138;2023-09-18T14:17:26;3.22;;;1.00;;
20084;SDS011;10202;48.474;9.138;2023-09-18T14:19:51;5.05;;;0.75;;
20084;SDS011;10202;48.474;9.138;2023-09-18T14:22:19;1.05;;;0.60;;
20084;SDS011;10202;48.474;9.138;2023-09-18T14:24:44;1.23;;;0.82;;
20084;SDS011;10202;48.474;9.138;2023-09-18T14:27:10;2.63;;;1.27;;
20084;SDS011;10202;48.474;9.138;2023-09-18T14:29:37;1.05;;;0.70;;
20084;SDS011;10202;48.474;9.138;2023-09-18T14:32:05;1.60;;;0.88;;
20084;SDS011;10202;48.474;9.138;2023-09-18T14:34:33;4.00;;;0.60;;
20084;SDS011;10202;48.474;9.138;2023-09-18T14:37:01;1.75;;;0.80;;
20084;SDS011;10202;48.474;9.138;2023-09-18T14:39:29;2.35;;;0.70;;
20084;SDS011;10202;48.474;9.138;2023-09-18T14:42:01;5.10;;;1.13;;
20084;SDS011;10202;48.474;9.138;2023-09-18T14:44:26;2.17;;;0.60;;
20084;SDS011;10202;48.474;9.138;2023-09-18T14:46:58;1.15;;;0.70;;
20084;SDS011;10202;48.474;9.138;2023-09-18T14:49:23;4.35;;;0.90;;
20084;SDS011;10202;48.474;9.138;2023-09-18T14:51:57;2.72;;;0.73;;
20084;SDS011;10202;48.474;9.138;2023-09-18T14:54:23;0.73;;;0.60;;
20084;SDS011;10202;48.474;9.138;2023-09-18T14:56:48;1.73;;;1.00;;
20084;SDS011;10202;48.474;9.138;2023-09-18T14:59:16;0.95;;;0.70;;
20084;SDS011;10202;48.474;9.138;2023-09-18T15:01:41;2.38;;;0.90;;
20084;SDS011;10202;48.474;9.138;2023-09-18T15:04:11;1.38;;;0.80;;
20084;SDS011;10202;48.474;9.138;2023-09-18T15:06:39;1.42;;;0.80;;